createdAt,value
2016-03-08T17:40:00.740Z,37.55
2016-03-08T17:41:00.760Z,37.74
2016-03-08T17:42:00.731Z,37.74
2016-03-08T17:43:00.702Z,37.84
2016-03-08T17:44:03.376Z,37.85
2016-03-08T17:45:03.302Z,38.14
2016-03-08T17:46:02.085Z,37.95
2016-03-08T17:47:03.244Z,37.57
2016-03-08T17:48:03.138Z,37.37
2016-03-08T17:49:00.578Z,37.57
2016-03-08T17:50:01.283Z,37.37
2016-03-08T17:51:03.380Z,37.57
2016-03-08T17:52:03.039Z,37.57
2016-03-08T17:53:03.167Z,37.76
2016-03-08T17:54:03.028Z,37.66
2016-03-08T17:55:03.172Z,37.85
2016-03-08T17:56:03.269Z,37.66
2016-03-08T17:57:02.864Z,38.34
2016-03-08T17:58:03.227Z,38.04
2016-03-08T17:59:02.980Z,39.97
2016-03-08T18:00:01.186Z,40.93
2016-03-08T18:01:02.047Z,39.58
2016-03-08T18:02:02.191Z,40.28
2016-03-08T18:03:00.287Z,43.14
2016-03-08T18:04:00.258Z,42.58
2016-03-08T18:05:00.246Z,45.37
2016-03-08T18:06:02.513Z,49.69
2016-03-08T18:07:00.205Z,49.6
2016-03-08T18:08:03.004Z,48.45
2016-03-08T18:09:00.162Z,49.89
2016-03-08T18:10:00.150Z,49.99
2016-03-08T18:11:00.121Z,49.99
2016-03-08T18:12:00.108Z,50.76
2016-03-08T18:13:00.079Z,50.66
2016-03-08T18:14:00.068Z,50.46
2016-03-08T18:15:00.054Z,51.33
2016-03-08T18:16:00.040Z,51.23
2016-03-08T18:17:00.012Z,50.08
2016-03-08T18:18:00.000Z,50.76
2016-03-08T18:18:59.970Z,50.37
2016-03-08T18:19:59.973Z,50.37
2016-03-08T18:20:59.945Z,50.27
2016-03-08T18:21:59.932Z,49.69
2016-03-08T18:22:59.903Z,50.46
2016-03-08T18:23:59.875Z,49.99
2016-03-08T18:24:59.862Z,49.6
2016-03-08T18:25:59.849Z,49.51
2016-03-08T18:26:59.836Z,49.51
2016-03-08T18:27:59.808Z,49.31
2016-03-08T18:28:59.795Z,49.51
2016-03-08T18:29:59.782Z,49.22
2016-03-08T18:30:59.752Z,49.31
2016-03-08T18:31:59.741Z,49.12
2016-03-08T18:32:59.727Z,49.02
2016-03-08T18:33:59.698Z,48.64
2016-03-08T18:34:59.686Z,48.83
2016-03-08T18:35:59.673Z,48.64
2016-03-08T18:36:59.660Z,48.23
2016-03-08T18:37:59.632Z,48.25
2016-03-08T18:38:59.634Z,48.54
2016-03-08T18:39:59.605Z,48.71
2016-03-08T18:40:59.593Z,48.45
2016-03-08T18:41:59.579Z,48.64
2016-03-08T18:42:59.551Z,48.54
2016-03-08T18:43:59.554Z,48.35
2016-03-08T18:44:59.510Z,47.97
2016-03-08T18:45:59.496Z,47.68
2016-03-08T18:46:59.484Z,47.68
2016-03-08T18:47:59.455Z,47.87
2016-03-08T18:48:59.442Z,47.2
2016-03-08T18:49:59.429Z,47.39
2016-03-08T18:50:59.416Z,47.36
2016-03-08T18:51:59.388Z,47.46
2016-03-08T18:52:59.375Z,47.3
2016-03-08T18:53:59.346Z,47
2016-03-08T18:54:59.333Z,46.89
2016-03-08T18:55:59.320Z,47.1
2016-03-08T18:56:59.307Z,47.39
2016-03-08T18:57:59.295Z,46.98
2016-03-08T18:58:59.281Z,46.21
2016-03-08T18:59:59.253Z,47
2016-03-08T19:00:59.241Z,46.53
2016-03-08T19:01:59.227Z,46.12
2016-03-08T19:02:59.214Z,46.04
2016-03-08T19:03:59.185Z,46.14
2016-03-08T19:04:59.172Z,46.14
2016-03-08T19:05:59.160Z,46.33
2016-03-08T19:06:59.131Z,46.31
2016-03-08T19:07:59.119Z,46.43
2016-03-08T19:08:59.105Z,45.92
2016-03-08T19:09:59.076Z,45.92
2016-03-08T19:10:59.064Z,46.02
2016-03-08T19:11:59.051Z,45.45
2016-03-08T19:12:59.022Z,45.28
2016-03-08T19:13:59.026Z,45.64
2016-03-08T19:14:58.996Z,45.45
2016-03-08T19:15:58.968Z,45.25
2016-03-08T19:16:58.955Z,45.28
2016-03-08T19:17:58.942Z,45.66
2016-03-08T19:18:58.929Z,45.45
2016-03-08T19:19:58.900Z,45.56
2016-03-08T19:20:58.903Z,45.25
2016-03-08T19:21:58.866Z,45.47
2016-03-08T19:22:58.839Z,44.96
2016-03-08T19:23:58.797Z,44.96
2016-03-08T19:24:58.770Z,45.35
2016-03-08T19:25:58.743Z,45.66
2016-03-08T19:26:58.722Z,44.77
2016-03-08T19:27:58.689Z,44.51
2016-03-08T19:28:58.670Z,44.51
2016-03-08T19:29:58.652Z,44.41
2016-03-08T19:30:58.619Z,45.08
2016-03-08T19:31:58.604Z,44.99
2016-03-08T19:32:58.589Z,44.31
2016-03-08T19:33:58.559Z,44.7
2016-03-08T19:34:58.549Z,44.79
2016-03-08T19:35:58.519Z,44.7
2016-03-08T19:36:58.521Z,44.6
2016-03-08T19:37:58.491Z,44.22
2016-03-08T19:38:58.478Z,44.31
2016-03-08T19:39:58.449Z,44.6
2016-03-08T19:40:58.435Z,44.79
2016-03-08T19:41:58.406Z,45.56
2016-03-08T19:42:58.409Z,45.85
2016-03-08T19:43:58.379Z,45.47
2016-03-08T19:44:58.368Z,45.47
2016-03-08T19:45:58.354Z,46.06
2016-03-08T19:46:58.325Z,46.23
2016-03-08T19:47:58.298Z,45.97
2016-03-08T19:48:58.300Z,46.33
2016-03-08T19:49:58.270Z,46.36
2016-03-08T19:50:58.259Z,45.87
2016-03-08T19:51:58.308Z,45.59
2016-03-08T19:52:58.233Z,45.97
2016-03-08T19:53:58.204Z,45.97
2016-03-08T19:54:58.175Z,45.85
2016-03-08T19:55:58.161Z,46.16
2016-03-08T19:56:58.150Z,46.16
2016-03-08T19:57:58.136Z,46.45
2016-03-08T19:58:58.123Z,46.45
2016-03-08T19:59:58.095Z,45.59
2016-03-08T20:00:58.082Z,45.49
2016-03-08T20:01:58.069Z,45.59
2016-03-08T20:02:58.041Z,45.39
2016-03-08T20:03:58.027Z,45.29
2016-03-08T20:04:57.999Z,45.59
2016-03-08T20:05:58.002Z,45.29
2016-03-08T20:06:57.973Z,45.29
2016-03-08T20:07:57.960Z,45.29
2016-03-08T20:08:57.947Z,45.29
2016-03-08T20:09:57.919Z,45.49
2016-03-08T20:10:57.906Z,46.55
2016-03-08T20:11:57.876Z,45.59
2016-03-08T20:12:57.912Z,45.59
2016-03-08T20:13:57.898Z,45.68
2016-03-08T20:14:57.884Z,46.16
2016-03-08T20:15:57.873Z,45.87
2016-03-08T20:16:57.843Z,47.03
2016-03-08T20:17:57.831Z,46.55
2016-03-08T20:18:57.756Z,46.64
2016-03-08T20:19:57.789Z,46.16
2016-03-08T20:20:57.761Z,46.36
2016-03-08T20:21:57.764Z,46.16
2016-03-08T20:22:57.000Z,47.51
2016-03-08T20:23:57.737Z,48.47
2016-03-08T20:24:57.709Z,47.51
2016-03-08T20:25:57.664Z,47.89
2016-03-08T20:26:57.684Z,47.41
2016-03-08T20:27:57.623Z,47.03
2016-03-08T20:28:57.610Z,47.51
2016-03-08T20:29:57.628Z,47.13
2016-03-08T20:30:57.585Z,49.33
2016-03-08T20:31:57.571Z,48.3
2016-03-08T20:32:57.543Z,48.11
2016-03-08T20:33:57.546Z,47.15
2016-03-08T20:34:57.549Z,47.05
2016-03-08T20:35:57.519Z,46.47
2016-03-08T20:36:57.507Z,47.51
2016-03-08T20:37:57.462Z,46.06
2016-03-08T20:38:57.465Z,39.43
2016-03-08T20:39:57.405Z,39.61
2016-03-08T20:40:57.423Z,38.54
2016-03-08T20:41:56.661Z,38.81
2016-03-08T20:42:57.382Z,36.6
2016-03-08T20:43:57.979Z,37.74
2016-03-08T20:44:57.357Z,41
2016-03-08T20:45:57.328Z,42.16
2016-03-08T20:46:57.284Z,36.88
2016-03-08T20:47:57.334Z,37.55
2016-03-08T20:48:57.273Z,37.74
2016-03-08T20:49:56.495Z,38.51
2016-03-08T20:50:57.263Z,37.55
2016-03-08T20:51:56.501Z,37.35
2016-03-08T20:52:57.206Z,37.93
2016-03-08T20:53:57.178Z,36.4
2016-03-08T20:54:57.195Z,35.82
2016-03-08T20:55:57.120Z,36.86
2016-03-08T20:56:57.092Z,36.97
2016-03-08T20:57:57.078Z,37.16
2016-03-08T20:58:57.050Z,34.07
2016-03-08T20:59:57.038Z,35.42
2016-03-08T21:00:57.025Z,34.17
2016-03-08T21:01:56.997Z,33.29
2016-03-08T21:02:56.983Z,33.77
2016-03-08T21:03:56.970Z,35.21
2016-03-08T21:04:56.941Z,35.3
2016-03-08T21:05:57.061Z,35.42
2016-03-08T21:06:56.908Z,35.61
2016-03-08T21:07:56.910Z,35.42
2016-03-08T21:08:56.898Z,35.63
2016-03-08T21:09:56.854Z,35.53
2016-03-08T21:10:56.856Z,35.43
2016-03-08T21:11:56.812Z,35.34
2016-03-08T21:12:56.798Z,35.53
2016-03-08T21:13:56.787Z,35.36
2016-03-08T21:14:56.773Z,35.36
2016-03-08T21:15:56.745Z,35.55
2016-03-08T21:16:56.732Z,35.45
2016-03-08T21:17:56.703Z,35.74
2016-03-08T21:18:56.706Z,35.74
2016-03-08T21:19:56.677Z,35.83
2016-03-08T21:20:56.648Z,35.74
2016-03-08T21:21:56.636Z,36.22
2016-03-08T21:22:56.606Z,35.93
2016-03-08T21:23:56.594Z,36.13
2016-03-08T21:24:56.581Z,36.13
2016-03-08T21:25:56.584Z,35.93
2016-03-08T21:26:56.539Z,36.41
2016-03-08T21:27:56.542Z,36.51
2016-03-08T21:28:56.503Z,36.51
2016-03-08T21:29:56.522Z,36.53
2016-03-08T21:30:56.477Z,36.22
2016-03-08T21:31:56.449Z,36.6
2016-03-08T21:32:56.435Z,36.99
2016-03-08T21:33:56.424Z,36.72
2016-03-08T21:34:56.410Z,37.08
2016-03-08T21:35:56.396Z,36.99
2016-03-08T21:36:56.384Z,37.2
2016-03-08T21:37:56.355Z,37.1
2016-03-08T21:38:56.327Z,36.91
2016-03-08T21:39:56.314Z,37.49
2016-03-08T21:40:56.301Z,37.49
2016-03-08T21:41:56.303Z,37.39
2016-03-08T21:42:56.260Z,37.49
2016-03-08T21:43:56.246Z,37.49
2016-03-08T21:44:56.233Z,37.68
2016-03-08T21:45:56.221Z,37.66
2016-03-08T21:46:56.192Z,37.77
2016-03-08T21:47:56.179Z,37.77
2016-03-08T21:48:56.167Z,37.49
2016-03-08T21:49:56.137Z,37.87
2016-03-08T21:50:56.125Z,37.68
2016-03-08T21:51:56.112Z,37.77
2016-03-08T21:52:56.099Z,37.97
2016-03-08T21:53:56.070Z,39.31
2016-03-08T21:54:56.073Z,38.54
2016-03-08T21:55:56.075Z,38.35
2016-03-08T21:56:55.310Z,38.35
2016-03-08T21:57:56.066Z,38.26
2016-03-08T21:58:56.036Z,38.35
2016-03-08T21:59:56.008Z,38.35
2016-03-08T22:00:56.011Z,39.22
2016-03-08T22:01:55.983Z,44.31
2016-03-08T22:02:55.936Z,42.77
2016-03-08T22:03:55.954Z,42.97
2016-03-08T22:04:55.941Z,40.76
2016-03-08T22:05:55.927Z,41.05
2016-03-08T22:06:55.837Z,41.72
2016-03-08T22:07:55.824Z,41.91
2016-03-08T22:08:55.795Z,42.77
2016-03-08T22:09:55.783Z,41.91
2016-03-08T22:10:55.770Z,42.2
2016-03-08T22:11:55.757Z,43.54
2016-03-08T22:12:55.728Z,43.08
2016-03-08T22:13:55.731Z,43.47
2016-03-08T22:14:55.546Z,42.89
2016-03-08T22:15:55.690Z,43.85
2016-03-08T22:16:55.676Z,45.1
2016-03-08T22:17:55.647Z,44.24
2016-03-08T22:18:55.650Z,43.85
2016-03-08T22:19:55.622Z,44.43
2016-03-08T22:20:55.593Z,44.53
2016-03-08T22:21:55.580Z,44.72
2016-03-08T22:22:55.552Z,44.05
2016-03-08T22:23:55.555Z,45.29
2016-03-08T22:24:55.526Z,44.53
2016-03-08T22:25:55.513Z,44.72
2016-03-08T22:26:55.484Z,44.34
2016-03-08T22:27:55.486Z,45.01
2016-03-08T22:28:55.459Z,44.43
2016-03-08T22:29:55.446Z,44.82
2016-03-08T22:30:55.416Z,44.91
2016-03-08T22:31:55.420Z,44.62
2016-03-08T22:32:55.391Z,45.2
2016-03-08T22:33:55.378Z,45.29
2016-03-08T22:34:55.366Z,45.1
2016-03-08T22:35:55.337Z,45.39
2016-03-08T22:36:55.324Z,45.49
2016-03-08T22:37:55.296Z,45.29
2016-03-08T22:38:55.282Z,45.39
2016-03-08T22:39:55.269Z,45.85
2016-03-08T22:40:55.241Z,46.26
2016-03-08T22:41:55.228Z,45.95
2016-03-08T22:42:55.215Z,45.68
2016-03-08T22:43:55.202Z,46.43
2016-03-08T22:44:55.189Z,45.95
2016-03-08T22:45:55.160Z,46.04
2016-03-08T22:46:55.163Z,46.14
2016-03-08T22:47:55.134Z,46.53
2016-03-08T22:48:55.106Z,46.72
2016-03-08T22:49:55.109Z,46.62
2016-03-08T22:50:55.080Z,46.72
2016-03-08T22:51:55.083Z,46.53
2016-03-08T22:52:55.039Z,46.72
2016-03-08T22:53:55.042Z,47.1
2016-03-08T22:54:55.013Z,47.2
2016-03-08T22:55:55.000Z,47.3
2016-03-08T22:56:54.972Z,47.3
2016-03-08T22:57:54.958Z,46.72
2016-03-08T22:58:54.945Z,47.3
2016-03-08T22:59:54.917Z,47.2
2016-03-08T23:00:54.919Z,47.39
2016-03-08T23:01:54.908Z,47.58
2016-03-08T23:02:54.863Z,47.77
2016-03-08T23:03:54.849Z,47.49
2016-03-08T23:04:54.836Z,47.77
2016-03-08T23:05:54.839Z,48.16
2016-03-08T23:06:54.810Z,47.68
2016-03-08T23:07:54.782Z,48.07
2016-03-08T23:08:54.768Z,48.16
2016-03-08T23:09:54.756Z,48.54
2016-03-08T23:10:54.744Z,48.25
2016-03-08T23:11:54.715Z,48.07
2016-03-08T23:12:54.701Z,48.45
2016-03-08T23:13:54.689Z,48.45
2016-03-08T23:14:54.676Z,48.45
2016-03-08T23:15:54.648Z,48.35
2016-03-08T23:16:54.634Z,48.35
2016-03-08T23:17:54.621Z,48.54
2016-03-08T23:18:54.593Z,48.16
2016-03-08T23:19:54.581Z,48.64
2016-03-08T23:20:54.552Z,48.54
2016-03-08T23:21:54.554Z,48.64
2016-03-08T23:22:54.525Z,49.31
2016-03-08T23:23:54.529Z,49.02
2016-03-08T23:24:54.500Z,49.02
2016-03-08T23:25:54.486Z,49.31
2016-03-08T23:26:54.459Z,49.31
2016-03-08T23:27:54.445Z,49.12
2016-03-08T23:28:54.417Z,49.22
2016-03-08T23:29:54.404Z,49.22
2016-03-08T23:30:54.391Z,48.93
2016-03-08T23:31:54.377Z,49.6
2016-03-08T23:32:54.350Z,49.41
2016-03-08T23:33:54.336Z,49.41
2016-03-08T23:34:54.324Z,49.02
2016-03-08T23:35:54.310Z,49.22
2016-03-08T23:36:54.297Z,49.31
2016-03-08T23:37:54.269Z,49.6
2016-03-08T23:38:54.257Z,49.51
2016-03-08T23:39:54.244Z,49.6
2016-03-08T23:40:54.230Z,49.51
2016-03-08T23:41:54.201Z,49.69
2016-03-08T23:42:54.174Z,49.99
2016-03-08T23:43:54.176Z,49.51
2016-03-08T23:44:54.147Z,49.79
2016-03-08T23:45:54.135Z,50.27
2016-03-08T23:46:54.106Z,50.46
2016-03-08T23:47:54.093Z,50.08
2016-03-08T23:48:54.080Z,51.23
2016-03-08T23:49:54.051Z,51.04
2016-03-08T23:50:54.039Z,50.85
2016-03-08T23:51:54.042Z,50.56
2016-03-08T23:52:54.012Z,51.33
2016-03-08T23:53:53.983Z,51.43
2016-03-08T23:54:53.970Z,50.56
2016-03-08T23:55:53.958Z,50.37
2016-03-08T23:56:53.945Z,50.95
2016-03-08T23:57:53.917Z,50.85
2016-03-08T23:58:53.919Z,50.66
2016-03-08T23:59:53.891Z,50.66
